createdAt,value
2019-05-18T00:02:09.121Z,94611.55
2019-05-18T00:04:35.619Z,94607.70
2019-05-18T00:07:02.123Z,94617.41
2019-05-18T00:09:28.466Z,94608.77
2019-05-18T00:11:54.876Z,94606.33
2019-05-18T00:14:21.449Z,94606.89
2019-05-18T00:16:47.773Z,94609.59
2019-05-18T00:19:14.106Z,94614.73
2019-05-18T00:21:40.479Z,94621.02
2019-05-18T00:24:08.171Z,94618.34
2019-05-18T00:26:33.316Z,94616.59
2019-05-18T00:28:59.696Z,94608.77
2019-05-18T00:31:26.198Z,94606.44
2019-05-18T00:33:52.564Z,94600.48
2019-05-18T00:36:18.890Z,94600.94
2019-05-18T00:38:51.325Z,94603.73
2019-05-18T00:41:17.680Z,94608.18
2019-05-18T00:43:44.071Z,94610.75
2019-05-18T00:46:10.499Z,94608.64
2019-05-18T00:48:36.850Z,94611.57
2019-05-18T00:51:03.247Z,94610.52
2019-05-18T00:53:29.610Z,94606.31
2019-05-18T00:55:55.947Z,94596.96
2019-05-18T00:58:22.346Z,94597.09
2019-05-18T01:00:48.697Z,94599.53
2019-05-18T01:03:15.053Z,94602.92
2019-05-18T01:05:41.426Z,94598.02
2019-05-18T01:10:34.178Z,94589.98
2019-05-18T01:13:00.634Z,94588.87
2019-05-18T01:15:26.957Z,94590.05
2019-05-18T01:17:57.563Z,94581.07
2019-05-18T01:20:19.635Z,94584.70
2019-05-18T01:22:46.160Z,94578.51
2019-05-18T01:25:12.526Z,94580.84
2019-05-18T01:27:39.017Z,94579.56
2019-05-18T01:30:05.368Z,94582.00
2019-05-18T01:32:31.873Z,94576.41
2019-05-18T01:34:58.204Z,94580.13
2019-05-18T01:37:24.759Z,94576.28
2019-05-18T01:39:51.079Z,94567.06
2019-05-18T01:44:43.809Z,94563.81
2019-05-18T01:47:10.148Z,94562.16
2019-05-18T01:49:36.506Z,94552.46
2019-05-18T01:52:02.930Z,94557.59
2019-05-18T01:54:29.240Z,94552.23
2019-05-18T01:56:57.869Z,94556.08
2019-05-18T01:59:24.181Z,94555.49
2019-05-18T02:01:50.512Z,94550.72
2019-05-18T02:04:16.867Z,94550.36
2019-05-18T02:06:43.231Z,94548.16
2019-05-18T02:09:09.624Z,94541.75
2019-05-18T02:11:35.936Z,94542.89
2019-05-18T02:14:02.343Z,94540.00
2019-05-18T02:18:55.096Z,94532.77
2019-05-18T02:21:21.380Z,94528.20
2019-05-18T02:23:47.728Z,94532.53
2019-05-18T02:26:14.049Z,94538.69
2019-05-18T02:28:40.551Z,94534.02
2019-05-18T02:31:06.871Z,94533.69
2019-05-18T02:33:33.244Z,94534.61
2019-05-18T02:35:59.688Z,94532.18
2019-05-18T02:38:26.038Z,94527.15
2019-05-18T02:40:52.418Z,94526.00
2019-05-18T02:43:18.795Z,94524.81
2019-05-18T02:45:45.125Z,94526.45
2019-05-18T02:48:11.507Z,94528.20
2019-05-18T02:53:04.243Z,94538.34
2019-05-18T02:55:30.699Z,94544.05
2019-05-18T02:57:57.043Z,94544.52
2019-05-18T03:00:23.416Z,94545.80
2019-05-18T03:02:49.789Z,94554.31
2019-05-18T03:05:16.185Z,94553.59
2019-05-18T03:07:42.667Z,94551.48
2019-05-18T03:10:09.234Z,94542.41
2019-05-18T03:12:35.605Z,94543.92
2019-05-18T03:15:01.971Z,94549.05
2019-05-18T03:17:28.288Z,94549.88
2019-05-18T03:19:54.887Z,94570.39
2019-05-18T03:22:21.242Z,94570.59
2019-05-18T03:24:47.600Z,94571.18
2019-05-18T03:27:13.955Z,94571.77
2019-05-18T03:29:40.392Z,94572.79
2019-05-18T03:32:06.756Z,94571.88
2019-05-18T03:34:33.192Z,94575.48
2019-05-18T03:36:59.454Z,94575.84
2019-05-18T03:39:25.802Z,94584.46
2019-05-18T03:41:52.128Z,94581.89
2019-05-18T03:44:18.522Z,94581.66
2019-05-18T03:46:44.869Z,94584.82
2019-05-18T03:49:25.494Z,94584.92
2019-05-18T03:51:37.747Z,94574.89
2019-05-18T03:54:04.133Z,94579.42
2019-05-18T03:56:30.629Z,94586.43
2019-05-18T03:58:57.063Z,94581.76
2019-05-18T04:01:23.471Z,94583.86
2019-05-18T04:03:49.814Z,94579.32
2019-05-18T04:06:16.203Z,94583.63
2019-05-18T04:08:42.598Z,94578.95
2019-05-18T04:11:09.075Z,94584.78
2019-05-18T04:13:35.452Z,94590.04
2019-05-18T04:16:01.798Z,94583.98
2019-05-18T04:18:28.144Z,94582.80
2019-05-18T04:20:54.524Z,94587.84
2019-05-18T04:23:20.916Z,94583.27
2019-05-18T04:25:47.357Z,94578.59
2019-05-18T04:28:13.713Z,94587.94
2019-05-18T04:30:40.114Z,94585.97
2019-05-18T04:33:06.469Z,94595.41
2019-05-18T04:35:32.792Z,94583.98
2019-05-18T04:37:59.126Z,94588.30
2019-05-18T04:40:25.555Z,94592.38
2019-05-18T04:42:52.013Z,94598.19
2019-05-18T04:45:18.366Z,94606.48
2019-05-18T04:47:48.530Z,94603.09
2019-05-18T04:50:11.089Z,94605.42
2019-05-18T04:52:37.412Z,94605.42
2019-05-18T04:57:30.140Z,94609.27
2019-05-18T04:59:56.507Z,94612.98
2019-05-18T05:02:22.920Z,94610.69
2019-05-18T05:04:52.620Z,94609.14
2019-05-18T05:07:15.692Z,94606.35
2019-05-18T05:09:42.247Z,94613.72
2019-05-18T05:12:08.763Z,94613.59
2019-05-18T05:14:35.124Z,94608.36
2019-05-18T05:17:01.514Z,94607.91
2019-05-18T05:19:27.889Z,94599.26
2019-05-18T05:21:54.209Z,94605.58
2019-05-18T05:24:20.588Z,94608.28
2019-05-18T05:26:46.975Z,94611.89
2019-05-18T05:31:39.814Z,94613.64
2019-05-18T05:34:06.338Z,94614.01
2019-05-18T05:36:32.686Z,94610.30
2019-05-18T05:38:59.039Z,94614.94
2019-05-18T05:41:25.369Z,94609.11
2019-05-18T05:43:51.884Z,94607.92
2019-05-18T05:46:18.278Z,94618.91
2019-05-18T05:48:44.745Z,94617.63
2019-05-18T05:51:11.180Z,94615.52
2019-05-18T05:53:37.616Z,94613.42
2019-05-18T05:56:03.966Z,94612.05
2019-05-18T05:58:30.507Z,94614.97
2019-05-18T06:00:56.917Z,94613.92
2019-05-18T06:05:49.659Z,94614.39
2019-05-18T06:08:15.992Z,94615.70
2019-05-18T06:10:42.369Z,94611.63
2019-05-18T06:13:08.758Z,94616.39
2019-05-18T06:15:35.161Z,94609.06
2019-05-18T06:18:01.461Z,94609.75
2019-05-18T06:20:27.987Z,94607.77
2019-05-18T06:22:54.323Z,94609.29
2019-05-18T06:25:20.712Z,94609.09
2019-05-18T06:27:47.089Z,94607.57
2019-05-18T06:30:13.596Z,94612.27
2019-05-18T06:32:39.937Z,94617.17
2019-05-18T06:35:06.286Z,94614.59
2019-05-18T06:37:32.608Z,94618.12
2019-05-18T06:39:59.128Z,94620.78
2019-05-18T06:42:25.497Z,94624.17
2019-05-18T06:44:51.991Z,94628.84
2019-05-18T06:47:18.317Z,94623.95
2019-05-18T06:49:44.897Z,94621.48
2019-05-18T06:52:11.231Z,94622.42
2019-05-18T06:54:37.825Z,94616.36
2019-05-18T06:57:04.281Z,94615.17
2019-05-18T06:59:30.680Z,94615.42
2019-05-18T07:01:56.938Z,94611.42
2019-05-18T07:04:23.452Z,94607.83
2019-05-18T07:06:49.795Z,94605.94
2019-05-18T07:09:16.157Z,94604.87
2019-05-18T07:11:42.514Z,94610.23
2019-05-18T07:14:09.164Z,94604.40
2019-05-18T07:16:35.575Z,94607.55
2019-05-18T07:19:01.841Z,94610.12
2019-05-18T07:23:54.570Z,94603.10
2019-05-18T07:26:21.141Z,94596.30
2019-05-18T07:28:47.471Z,94599.02
2019-05-18T07:31:13.830Z,94601.80
2019-05-18T07:33:40.227Z,94600.99
2019-05-18T07:36:06.552Z,94602.85
2019-05-18T07:38:32.942Z,94600.39
2019-05-18T07:40:59.422Z,94600.02
2019-05-18T07:43:25.752Z,94599.77
2019-05-18T07:45:52.280Z,94600.23
2019-05-18T07:48:18.706Z,94602.66
2019-05-18T07:50:45.071Z,94601.13
2019-05-18T07:53:11.469Z,94605.20
2019-05-18T07:55:37.871Z,94600.63
2019-05-18T07:58:04.356Z,94598.63
2019-05-18T08:00:30.894Z,94599.89
2019-05-18T08:02:57.223Z,94591.09
2019-05-18T08:05:23.574Z,94590.13
2019-05-18T08:07:49.910Z,94594.55
2019-05-18T08:10:16.406Z,94605.42
2019-05-18T08:12:42.821Z,94602.02
2019-05-18T08:15:09.279Z,94600.37
2019-05-18T08:17:35.682Z,94601.19
2019-05-18T08:20:02.108Z,94600.37
2019-05-18T08:22:28.564Z,94592.39
2019-05-18T08:24:54.931Z,94594.36
2019-05-18T08:27:21.249Z,94593.42
2019-05-18T08:29:47.675Z,94594.45
2019-05-18T08:32:14.011Z,94589.77
2019-05-18T08:34:40.539Z,94585.34
2019-05-18T08:37:06.946Z,94588.84
2019-05-18T08:39:33.606Z,94583.30
2019-05-18T08:42:00.225Z,94577.82
2019-05-18T08:44:26.678Z,94578.71
2019-05-18T08:46:53.029Z,94573.45
2019-05-18T08:49:19.392Z,94573.30
2019-05-18T08:51:45.732Z,94568.39
2019-05-18T08:54:12.185Z,94565.21
2019-05-18T08:56:38.538Z,94568.86
2019-05-18T08:59:04.975Z,94564.34
2019-05-18T09:01:31.258Z,94564.02
2019-05-18T09:03:59.085Z,94567.52
2019-05-18T09:06:24.259Z,94569.73
2019-05-18T09:08:50.587Z,94571.48
2019-05-18T09:11:16.947Z,94572.87
2019-05-18T09:13:43.276Z,94567.10
2019-05-18T09:16:09.787Z,94561.34
2019-05-18T09:18:36.130Z,94557.72
2019-05-18T09:21:02.555Z,94559.20
2019-05-18T09:23:29.000Z,94552.88
2019-05-18T09:28:21.740Z,94555.76
2019-05-18T09:30:48.089Z,94548.94
2019-05-18T09:33:14.613Z,94546.22
2019-05-18T09:35:40.987Z,94541.06
2019-05-18T09:38:07.384Z,94536.20
2019-05-18T09:40:33.725Z,94534.07
2019-05-18T09:43:00.090Z,94535.27
2019-05-18T09:45:26.490Z,94526.10
2019-05-18T09:47:52.809Z,94526.45
2019-05-18T09:50:19.153Z,94512.75
2019-05-18T09:52:46.293Z,94520.16
2019-05-18T09:55:11.976Z,94512.20
2019-05-18T09:57:38.327Z,94514.45
2019-05-18T10:00:04.852Z,94507.81
2019-05-18T10:02:31.386Z,94515.86
2019-05-18T10:04:57.726Z,94512.41
2019-05-18T10:07:24.046Z,94516.27
2019-05-18T10:09:50.430Z,94500.58
2019-05-18T10:12:16.914Z,94495.22
2019-05-18T10:14:43.241Z,94501.08
2019-05-18T10:17:09.771Z,94495.84
2019-05-18T10:19:36.102Z,94491.27
2019-05-18T10:22:02.469Z,94486.12
2019-05-18T10:24:28.820Z,94490.59
2019-05-18T10:26:55.147Z,94491.06
2019-05-18T10:29:21.527Z,94487.35
2019-05-18T10:31:47.867Z,94484.07
2019-05-18T10:34:14.430Z,94481.17
2019-05-18T10:36:40.918Z,94477.78
2019-05-18T10:39:07.248Z,94477.89
2019-05-18T10:41:33.605Z,94471.72
2019-05-18T10:44:00.026Z,94475.94
2019-05-18T10:46:26.403Z,94470.79
2019-05-18T10:48:52.742Z,94475.47
2019-05-18T10:51:19.115Z,94473.01
2019-05-18T10:53:45.452Z,94472.69
2019-05-18T10:56:11.814Z,94470.23
2019-05-18T10:58:38.142Z,94467.19
2019-05-18T11:01:04.681Z,94467.30
2019-05-18T11:03:30.990Z,94468.01
2019-05-18T11:05:57.371Z,94464.05
2019-05-18T11:08:23.722Z,94461.33
2019-05-18T11:10:50.173Z,94453.41
2019-05-18T11:13:17.355Z,94457.53
2019-05-18T11:15:42.922Z,94456.12
2019-05-18T11:18:09.281Z,94447.11
2019-05-18T11:20:35.668Z,94448.67
2019-05-18T11:23:02.010Z,94446.56
2019-05-18T11:25:28.496Z,94437.55
2019-05-18T11:27:54.823Z,94437.90
2019-05-18T11:30:21.388Z,94438.95
2019-05-18T11:32:47.728Z,94428.18
2019-05-18T11:35:14.199Z,94419.64
2019-05-18T11:37:40.729Z,94419.98
2019-05-18T11:40:07.111Z,94419.79
2019-05-18T11:42:33.420Z,94419.79
2019-05-18T11:44:59.776Z,94422.36
2019-05-18T11:47:26.153Z,94418.82
2019-05-18T11:49:52.646Z,94416.95
2019-05-18T11:54:45.453Z,94412.53
2019-05-18T11:57:11.867Z,94406.21
2019-05-18T11:59:38.168Z,94403.78
2019-05-18T12:02:04.621Z,94399.92
2019-05-18T12:04:30.887Z,94395.12
2019-05-18T12:06:57.527Z,94397.00
2019-05-18T12:09:23.869Z,94389.98
2019-05-18T12:11:50.196Z,94387.98
2019-05-18T12:14:16.582Z,94385.41
2019-05-18T12:16:43.038Z,94384.59
2019-05-18T12:19:09.416Z,94385.77
2019-05-18T12:21:35.746Z,94379.12
2019-05-18T12:24:14.969Z,94382.17
2019-05-18T12:28:54.829Z,94367.55
2019-05-18T12:31:21.322Z,94361.69
2019-05-18T12:33:47.791Z,94361.22
2019-05-18T12:36:15.746Z,94355.72
2019-05-18T12:38:40.460Z,94352.36
2019-05-18T12:41:06.850Z,94350.84
2019-05-18T12:43:33.264Z,94348.50
2019-05-18T12:45:59.597Z,94350.58
2019-05-18T12:48:25.977Z,94347.68
2019-05-18T12:50:52.292Z,94344.09
2019-05-18T12:53:18.664Z,94341.52
2019-05-18T12:55:45.152Z,94334.93
2019-05-18T12:58:11.661Z,94333.17
2019-05-18T13:00:38.050Z,94334.61
2019-05-18T13:03:04.403Z,94334.26
2019-05-18T13:05:30.879Z,94331.95
2019-05-18T13:07:57.415Z,94327.12
2019-05-18T13:12:50.357Z,94323.41
2019-05-18T13:15:16.794Z,94314.13
2019-05-18T13:17:43.381Z,94309.66
2019-05-18T13:20:09.709Z,94309.80
2019-05-18T13:22:36.199Z,94309.27
2019-05-18T13:25:02.543Z,94310.91
2019-05-18T13:27:38.707Z,94312.31
2019-05-18T13:29:55.411Z,94308.37
2019-05-18T13:32:21.950Z,94308.61
2019-05-18T13:34:48.288Z,94307.24
2019-05-18T13:37:14.746Z,94301.16
2019-05-18T13:39:41.076Z,94296.33
2019-05-18T13:42:07.464Z,94291.87
2019-05-18T13:47:00.175Z,94292.89
2019-05-18T13:49:26.541Z,94287.86
2019-05-18T13:51:53.204Z,94286.58
2019-05-18T13:54:19.738Z,94288.88
2019-05-18T13:56:46.125Z,94284.00
2019-05-18T13:59:12.593Z,94285.37
2019-05-18T14:01:38.930Z,94285.22
2019-05-18T14:04:05.274Z,94286.45
2019-05-18T14:06:31.646Z,94283.14
2019-05-18T14:08:58.179Z,94278.58
2019-05-18T14:11:24.513Z,94282.91
2019-05-18T14:13:50.983Z,94280.56
2019-05-18T14:16:17.314Z,94276.01
2019-05-18T14:18:43.705Z,94282.59
2019-05-18T14:21:10.058Z,94283.61
2019-05-18T14:23:36.476Z,94283.81
2019-05-18T14:26:02.819Z,94283.81
2019-05-18T14:28:29.212Z,94286.85
2019-05-18T14:30:55.542Z,94283.93
2019-05-18T14:33:21.940Z,94288.02
2019-05-18T14:35:48.395Z,94291.88
2019-05-18T14:38:14.768Z,94284.75
2019-05-18T14:40:41.107Z,94281.70
2019-05-18T14:43:07.435Z,94283.66
2019-05-18T14:45:36.130Z,94281.91
2019-05-18T14:48:02.479Z,94281.23
2019-05-18T14:50:28.908Z,94278.19
2019-05-18T14:52:55.194Z,94276.55
2019-05-18T14:55:32.733Z,94273.98
2019-05-18T14:57:47.932Z,94277.72
2019-05-18T15:00:14.450Z,94278.51
2019-05-18T15:02:40.792Z,94281.08
2019-05-18T15:05:07.143Z,94280.77
2019-05-18T15:07:33.515Z,94271.60
2019-05-18T15:09:59.863Z,94271.48
2019-05-18T15:12:26.397Z,94265.63
2019-05-18T15:17:19.159Z,94257.98
2019-05-18T15:19:45.680Z,94259.89
2019-05-18T15:22:12.023Z,94259.89
2019-05-18T15:24:38.399Z,94260.75
2019-05-18T15:27:04.785Z,94257.98
2019-05-18T15:29:31.170Z,94254.81
2019-05-18T15:31:57.501Z,94249.44
2019-05-18T15:34:23.881Z,94257.05
2019-05-18T15:36:50.220Z,94257.39
2019-05-18T15:39:16.584Z,94254.19
2019-05-18T15:41:43.181Z,94256.42
2019-05-18T15:44:09.592Z,94266.12
2019-05-18T15:46:35.917Z,94258.72
2019-05-18T15:49:02.377Z,94259.34
2019-05-18T15:51:28.709Z,94262.46
2019-05-18T15:53:55.121Z,94262.86
2019-05-18T15:56:21.559Z,94264.02
2019-05-18T15:58:47.871Z,94260.98
2019-05-18T16:01:14.218Z,94258.99
2019-05-18T16:03:40.582Z,94263.09
2019-05-18T16:06:06.966Z,94266.25
2019-05-18T16:08:33.294Z,94268.43
2019-05-18T16:10:59.756Z,94266.17
2019-05-18T16:13:26.141Z,94268.75
2019-05-18T16:15:52.617Z,94275.46
2019-05-18T16:18:18.991Z,94275.61
2019-05-18T16:20:45.505Z,94277.77
2019-05-18T16:25:38.232Z,94272.89
2019-05-18T16:28:04.606Z,94273.58
2019-05-18T16:30:30.933Z,94271.59
2019-05-18T16:32:57.345Z,94269.25
2019-05-18T16:35:23.748Z,94272.89
2019-05-18T16:37:50.210Z,94275.19
2019-05-18T16:40:16.567Z,94274.25
2019-05-18T16:42:46.374Z,94274.05
2019-05-18T16:47:35.806Z,94283.45
2019-05-18T16:50:02.153Z,94281.43
2019-05-18T16:52:28.581Z,94292.63
2019-05-18T16:54:55.029Z,94290.33
2019-05-18T16:57:21.468Z,94287.05
2019-05-18T16:59:47.804Z,94285.02
2019-05-18T17:02:30.316Z,94285.37
2019-05-18T17:04:40.681Z,94281.31
2019-05-18T17:07:07.045Z,94285.84
2019-05-18T17:09:33.540Z,94280.41
2019-05-18T17:11:59.863Z,94288.29
2019-05-18T17:14:26.386Z,94291.92
2019-05-18T17:16:52.735Z,94291.80
2019-05-18T17:21:45.418Z,94290.98
2019-05-18T17:24:11.829Z,94287.20
2019-05-18T17:26:51.785Z,94283.93
2019-05-18T17:29:04.533Z,94288.48
2019-05-18T17:31:31.013Z,94288.34
2019-05-18T17:33:57.345Z,94299.14
2019-05-18T17:36:23.725Z,94295.75
2019-05-18T17:38:50.212Z,94295.75
2019-05-18T17:41:16.623Z,94298.52
2019-05-18T17:43:42.928Z,94297.85
2019-05-18T17:46:09.411Z,94308.00
2019-05-18T17:48:35.793Z,94305.42
2019-05-18T17:51:02.117Z,94312.34
2019-05-18T17:55:54.943Z,94309.76
2019-05-18T17:58:21.263Z,94313.63
2019-05-18T18:00:47.626Z,94315.37
2019-05-18T18:03:14.005Z,94313.77
2019-05-18T18:05:40.458Z,94317.02
2019-05-18T18:08:06.812Z,94312.02
2019-05-18T18:10:33.273Z,94317.56
2019-05-18T18:12:59.621Z,94321.97
2019-05-18T18:15:25.998Z,94324.89
2019-05-18T18:17:52.362Z,94329.27
2019-05-18T18:20:18.736Z,94325.37
2019-05-18T18:22:45.051Z,94332.94
2019-05-18T18:25:11.384Z,94337.35
2019-05-18T18:27:37.823Z,94331.19
2019-05-18T18:30:04.185Z,94337.97
2019-05-18T18:32:30.515Z,94342.16
2019-05-18T18:34:56.861Z,94341.69
2019-05-18T18:37:23.368Z,94346.52
2019-05-18T18:39:49.702Z,94346.98
2019-05-18T18:42:16.105Z,94347.30
2019-05-18T18:44:42.401Z,94354.25
2019-05-18T18:47:08.728Z,94352.45
2019-05-18T18:49:35.098Z,94343.95
2019-05-18T18:52:01.431Z,94344.96
2019-05-18T18:54:27.802Z,94353.36
2019-05-18T18:56:54.129Z,94361.23
2019-05-18T18:59:20.470Z,94367.67
2019-05-18T19:01:46.804Z,94370.72
2019-05-18T19:04:13.235Z,94361.55
2019-05-18T19:06:39.666Z,94362.02
2019-05-18T19:09:05.979Z,94359.59
2019-05-18T19:11:32.373Z,94364.41
2019-05-18T19:13:58.702Z,94367.33
2019-05-18T19:16:25.075Z,94370.38
2019-05-18T19:18:51.444Z,94370.48
2019-05-18T19:21:17.757Z,94366.77
2019-05-18T19:26:10.461Z,94361.00
2019-05-18T19:28:36.902Z,94373.22
2019-05-18T19:31:03.434Z,94376.88
2019-05-18T19:33:29.798Z,94372.32
2019-05-18T19:35:56.217Z,94374.03
2019-05-18T19:38:22.684Z,94370.91
2019-05-18T19:40:49.077Z,94371.58
2019-05-18T19:43:15.410Z,94372.55
2019-05-18T19:45:41.778Z,94366.50
2019-05-18T19:48:08.259Z,94374.69
2019-05-18T19:50:34.600Z,94376.60
2019-05-18T19:53:01.153Z,94369.81
2019-05-18T19:55:27.470Z,94376.52
2019-05-18T19:57:53.959Z,94382.61
2019-05-18T20:00:20.299Z,94376.79
2019-05-18T20:02:46.748Z,94367.89
2019-05-18T20:05:13.061Z,94362.89
2019-05-18T20:07:39.509Z,94363.83
2019-05-18T20:10:05.915Z,94362.19
2019-05-18T20:12:32.270Z,94358.59
2019-05-18T20:14:58.602Z,94360.50
2019-05-18T20:17:24.968Z,94359.02
2019-05-18T20:19:51.311Z,94362.18
2019-05-18T20:22:17.731Z,94362.33
2019-05-18T20:24:44.136Z,94368.41
2019-05-18T20:27:10.499Z,94374.91
2019-05-18T20:29:36.845Z,94379.12
2019-05-18T20:32:03.175Z,94377.95
2019-05-18T20:34:29.666Z,94375.27
2019-05-18T20:36:55.994Z,94375.03
2019-05-18T20:39:22.351Z,94374.01
2019-05-18T20:44:15.212Z,94380.70
2019-05-18T20:46:41.594Z,94388.58
2019-05-18T20:49:08.163Z,94396.09
2019-05-18T20:51:34.517Z,94397.50
2019-05-18T20:54:00.936Z,94402.53
2019-05-18T20:56:27.475Z,94409.34
2019-05-18T20:58:53.799Z,94412.01
2019-05-18T21:01:20.337Z,94415.31
2019-05-18T21:03:46.668Z,94413.28
2019-05-18T21:06:13.215Z,94413.55
2019-05-18T21:08:39.570Z,94416.13
2019-05-18T21:11:06.057Z,94415.33
2019-05-18T21:13:32.417Z,94416.38
2019-05-18T21:18:25.191Z,94408.25
2019-05-18T21:20:51.700Z,94410.82
2019-05-18T21:23:18.051Z,94408.83
2019-05-18T21:25:44.401Z,94409.44
2019-05-18T21:28:10.724Z,94409.89
2019-05-18T21:30:37.240Z,94410.73
2019-05-18T21:33:03.753Z,94412.63
2019-05-18T21:35:30.091Z,94413.09
2019-05-18T21:37:56.495Z,94410.38
2019-05-18T21:40:26.074Z,94406.31
2019-05-18T21:42:49.289Z,94412.53
2019-05-18T21:45:17.030Z,94407.39
2019-05-18T21:47:42.256Z,94407.13
2019-05-18T21:52:34.952Z,94404.47
2019-05-18T21:55:01.598Z,94401.22
2019-05-18T21:57:27.903Z,94404.87
2019-05-18T21:59:54.423Z,94411.04
2019-05-18T22:02:20.798Z,94409.05
2019-05-18T22:04:49.143Z,94406.16
2019-05-18T22:07:13.595Z,94410.12
2019-05-18T22:09:39.940Z,94406.27
2019-05-18T22:12:06.271Z,94401.59
2019-05-18T22:14:32.793Z,94398.81
2019-05-18T22:16:59.228Z,94404.30
2019-05-18T22:19:25.674Z,94399.48
2019-05-18T22:21:52.023Z,94400.23
2019-05-18T22:24:18.531Z,94403.95
2019-05-18T22:26:45.050Z,94395.67
2019-05-18T22:29:11.408Z,94410.53
2019-05-18T22:31:37.776Z,94416.25
2019-05-18T22:36:30.507Z,94423.97
2019-05-18T22:38:56.845Z,94416.40
2019-05-18T22:41:23.236Z,94418.27
2019-05-18T22:43:49.599Z,94414.64
2019-05-18T22:46:16.145Z,94409.72
2019-05-18T22:48:42.487Z,94406.94
2019-05-18T22:51:08.987Z,94406.63
2019-05-18T22:53:35.412Z,94405.66
2019-05-18T22:56:01.816Z,94406.27
2019-05-18T22:58:28.310Z,94410.12
2019-05-18T23:00:54.631Z,94409.77
2019-05-18T23:03:21.079Z,94408.95
2019-05-18T23:05:47.416Z,94402.67
2019-05-18T23:10:40.169Z,94401.17
2019-05-18T23:13:06.597Z,94403.70
2019-05-18T23:15:32.932Z,94403.13
2019-05-18T23:17:59.340Z,94406.31
2019-05-18T23:20:25.866Z,94405.35
2019-05-18T23:22:52.196Z,94410.08
2019-05-18T23:25:18.729Z,94404.67
2019-05-18T23:27:45.073Z,94402.94
2019-05-18T23:30:11.505Z,94401.19
2019-05-18T23:32:37.834Z,94402.31
2019-05-18T23:35:04.268Z,94404.67
2019-05-18T23:37:30.596Z,94410.19
2019-05-18T23:39:57.125Z,94412.30
2019-05-18T23:44:49.974Z,94413.53
2019-05-18T23:47:16.298Z,94409.14
2019-05-18T23:49:42.675Z,94422.22
2019-05-18T23:52:09.036Z,94421.30
2019-05-18T23:54:35.497Z,94426.90
2019-05-18T23:57:01.946Z,94418.86
2019-05-18T23:59:28.268Z,94424.47
